Time;durP1;ratioP1;P1;durP2;ratioP2;P2;SDS_P1;SDS_P2;PMS_P1;PMS_P2;Temp;Humidity;BMP_temperature;BMP_pressure;BME280_temperature;BME280_humidity;BME280_pressure;Samples;Min_cycle;Max_cycle;Signal;HPM_P1;HPM_P2
2024/01/25 00:00:22;;;;;;;33.90;6.00;;;;;;;7.19;66.11;101053.91;6252155;23;20047;-68
2024/01/25 00:02:51;;;;;;;33.38;5.50;;;;;;;7.15;66.60;101057.78;6251475;23;20050;-68
2024/01/25 00:05:18;;;;;;;34.33;5.80;;;;;;;7.12;67.05;101068.81;6253651;23;20051;-67
2024/01/25 00:07:48;;;;;;;35.58;5.85;;;;;;;7.21;66.60;101073.56;6251947;23;20024;-68
2024/01/25 00:10:17;;;;;;;40.63;6.17;;;;;;;7.19;66.90;101086.28;6252636;23;20042;-67
2024/01/25 00:12:44;;;;;;;38.42;5.72;;;;;;;7.18;67.09;101093.50;6251898;23;20050;-68
2024/01/25 00:15:10;;;;;;;35.35;5.82;;;;;;;7.21;67.07;101087.06;6251830;23;20024;-69
2024/01/25 00:17:37;;;;;;;32.42;5.53;;;;;;;7.19;67.49;101073.69;6241252;23;20028;-67
2024/01/25 00:20:05;;;;;;;30.95;5.15;;;;;;;7.15;67.89;101095.56;6250914;23;20028;-67
2024/01/25 00:22:32;;;;;;;37.30;5.90;;;;;;;7.14;67.67;101083.91;6250910;23;20091;-67
2024/01/25 00:24:59;;;;;;;31.92;5.65;;;;;;;7.15;67.46;101084.75;6251208;23;20382;-68
2024/01/25 00:27:26;;;;;;;36.45;6.57;;;;;;;7.22;67.24;101084.25;6251470;23;20020;-67
2024/01/25 00:29:53;;;;;;;42.35;8.15;;;;;;;7.24;67.07;101084.13;6251985;23;20020;-67
2024/01/25 00:32:20;;;;;;;43.13;6.47;;;;;;;7.15;67.59;101093.72;6252809;23;20024;-67
2024/01/25 00:34:47;;;;;;;33.08;5.68;;;;;;;7.21;67.72;101084.34;6252123;22;20035;-67
2024/01/25 00:37:14;;;;;;;39.28;6.05;;;;;;;7.23;67.37;101093.19;6252761;23;20084;-67
2024/01/25 00:39:42;;;;;;;35.22;5.28;;;;;;;7.19;67.34;101106.06;6252218;23;20063;-67
2024/01/25 00:42:14;;;;;;;42.50;6.28;;;;;;;7.23;67.05;101104.00;6251320;23;20020;-67
2024/01/25 00:44:41;;;;;;;35.83;6.32;;;;;;;7.26;67.03;101117.25;6251241;23;20031;-67
2024/01/25 00:47:08;;;;;;;38.33;5.95;;;;;;;7.18;67.46;101135.81;6251569;23;20028;-67
2024/01/25 00:49:35;;;;;;;42.00;6.70;;;;;;;7.23;67.31;101126.44;6252927;23;20020;-68
2024/01/25 00:52:04;;;;;;;40.53;7.22;;;;;;;7.19;67.45;101135.72;6253756;23;20355;-67
2024/01/25 00:54:31;;;;;;;29.67;5.70;;;;;;;7.24;67.25;101132.69;6253760;23;20024;-67
2024/01/25 00:56:58;;;;;;;39.72;5.85;;;;;;;7.22;67.22;101129.25;6253744;23;20028;-67
2024/01/25 00:59:25;;;;;;;32.42;5.70;;;;;;;7.21;66.63;101132.91;6254272;23;20073;-66
2024/01/25 01:01:54;;;;;;;42.40;5.97;;;;;;;7.26;66.59;101138.84;6253269;23;20020;-69
2024/01/25 01:04:21;;;;;;;36.75;6.35;;;;;;;7.23;66.78;101130.97;6254287;23;20020;-67
2024/01/25 01:06:48;;;;;;;29.70;4.97;;;;;;;7.24;66.74;101149.75;6253562;23;20447;-67
2024/01/25 01:09:15;;;;;;;32.08;5.15;;;;;;;7.22;66.61;101145.44;6252753;23;20024;-67
2024/01/25 01:11:42;;;;;;;31.75;5.13;;;;;;;7.25;66.60;101142.53;6226138;23;20035;-68
2024/01/25 01:14:09;;;;;;;26.90;4.78;;;;;;;7.24;66.09;101155.16;6251981;23;20028;-69
2024/01/25 01:16:36;;;;;;;27.73;5.32;;;;;;;7.27;66.15;101159.47;6252716;23;20049;-67
2024/01/25 01:19:06;;;;;;;28.90;5.35;;;;;;;7.25;66.02;101150.63;6252588;23;20020;-67
2024/01/25 01:21:34;;;;;;;28.55;4.70;;;;;;;7.20;66.26;101155.47;6252804;23;20027;-67
2024/01/25 01:24:01;;;;;;;28.23;4.38;;;;;;;7.25;65.91;101143.38;6251910;23;20028;-68
2024/01/25 01:26:28;;;;;;;30.20;5.38;;;;;;;7.29;65.83;101141.38;6251809;23;20020;-69
2024/01/25 01:28:55;;;;;;;35.63;6.60;;;;;;;7.18;65.87;101147.47;6251475;23;20032;-67
2024/01/25 01:31:21;;;;;;;46.75;5.75;;;;;;;7.25;65.78;101137.13;6253114;23;20020;-67
2024/01/25 01:33:48;;;;;;;45.90;4.82;;;;;;;7.25;66.24;101140.69;6256037;22;20020;-67
2024/01/25 01:36:15;;;;;;;32.28;5.05;;;;;;;7.27;65.40;101132.47;6282418;22;20024;-67
2024/01/25 01:38:42;;;;;;;30.60;5.35;;;;;;;7.26;65.54;101126.22;6282501;22;20031;-68
2024/01/25 01:41:11;;;;;;;35.10;5.88;;;;;;;7.26;65.29;101146.94;6281906;22;20054;-68
2024/01/25 01:43:37;;;;;;;25.42;4.82;;;;;;;7.28;65.54;101155.78;6282187;22;20024;-67
2024/01/25 01:46:10;;;;;;;27.63;4.93;;;;;;;7.29;65.24;101138.66;6283626;22;20031;-67
2024/01/25 01:48:38;;;;;;;40.83;6.75;;;;;;;7.24;65.52;101138.09;6281727;22;20073;-67
2024/01/25 01:51:06;;;;;;;28.98;4.90;;;;;;;7.22;65.56;101142.75;6281096;22;20046;-66
2024/01/25 01:53:34;;;;;;;24.77;4.30;;;;;;;7.22;65.49;101145.44;6282909;22;20050;-67
2024/01/25 01:56:01;;;;;;;40.00;6.57;;;;;;;7.24;65.66;101159.69;6282374;22;20046;-67
2024/01/25 01:58:29;;;;;;;36.38;6.57;;;;;;;7.22;65.42;101156.22;6282581;22;20023;-67
2024/01/25 02:00:55;;;;;;;29.98;5.53;;;;;;;7.22;65.54;101157.09;6281959;22;20071;-67
2024/01/25 02:03:22;;;;;;;32.15;4.10;;;;;;;7.17;65.34;101156.53;6281994;22;20031;-67
2024/01/25 02:09:35;;;;;;;33.33;5.07;;;;;;;7.16;65.65;101162.88;6279388;22;20023;-67
2024/01/25 02:12:02;;;;;;;35.58;5.85;;;;;;;7.13;65.56;101162.25;6280361;22;20030;-67
2024/01/25 02:14:30;;;;;;;32.38;4.65;;;;;;;7.11;65.56;101162.34;6282262;22;20031;-67
2024/01/25 02:16:57;;;;;;;34.40;5.00;;;;;;;7.16;65.83;101153.94;6277210;22;20081;-66
2024/01/25 02:19:24;;;;;;;31.67;5.30;;;;;;;7.16;65.80;101172.81;6279639;22;20016;-66
2024/01/25 02:21:53;;;;;;;25.52;4.63;;;;;;;7.09;65.67;101166.09;6281842;22;20358;-67
2024/01/25 02:24:20;;;;;;;33.35;4.97;;;;;;;7.14;65.54;101169.38;6282743;22;20043;-66
2024/01/25 02:26:47;;;;;;;36.20;5.20;;;;;;;7.05;65.98;101175.38;6278200;22;20031;-66
2024/01/25 02:29:14;;;;;;;35.40;5.40;;;;;;;7.07;65.95;101168.91;6280290;22;20433;-67
2024/01/25 02:31:40;;;;;;;44.03;6.13;;;;;;;7.12;66.09;101164.06;6278412;22;20099;-66
2024/01/25 02:34:07;;;;;;;28.42;5.18;;;;;;;7.11;66.26;101154.25;6281715;22;20034;-69
2024/01/25 02:36:34;;;;;;;32.47;5.22;;;;;;;7.14;65.90;101170.22;6277089;22;20049;-68
2024/01/25 02:39:01;;;;;;;34.15;6.63;;;;;;;7.13;66.04;101168.50;6277933;22;20042;-68
2024/01/25 02:41:30;;;;;;;31.58;5.07;;;;;;;7.13;65.96;101162.25;6279296;22;20097;-68
2024/01/25 02:43:56;;;;;;;37.90;6.13;;;;;;;7.05;66.33;101168.16;6278241;22;20028;-68
2024/01/25 02:46:23;;;;;;;38.05;6.72;;;;;;;7.11;65.93;101165.03;6277541;22;20032;-68
2024/01/25 02:48:50;;;;;;;35.42;5.97;;;;;;;7.10;65.96;101163.31;6276228;22;20015;-69
2024/01/25 02:51:17;;;;;;;35.35;5.82;;;;;;;7.10;66.11;101173.25;6277051;22;20095;-68
2024/01/25 02:53:43;;;;;;;42.28;5.82;;;;;;;7.05;66.12;101164.59;6279065;22;20498;-68
2024/01/25 02:56:10;;;;;;;35.80;5.53;;;;;;;7.07;66.23;101168.91;6281422;22;20430;-68
2024/01/25 02:58:36;;;;;;;42.72;5.40;;;;;;;7.11;66.08;101158.78;6279163;22;20077;-68
2024/01/25 03:01:03;;;;;;;31.95;5.38;;;;;;;7.06;66.20;101166.31;6279608;22;20027;-68
2024/01/25 03:03:31;;;;;;;32.17;5.65;;;;;;;7.00;66.18;101178.34;6283001;22;20020;-68
2024/01/25 03:05:57;;;;;;;35.40;6.28;;;;;;;7.07;65.88;101181.53;6278743;22;20024;-68
2024/01/25 03:08:29;;;;;;;35.28;5.32;;;;;;;6.99;65.70;101174.78;6280279;22;20027;-68
2024/01/25 03:10:56;;;;;;;33.28;5.65;;;;;;;7.05;65.83;101175.38;6281523;22;20127;-68
2024/01/25 03:13:25;;;;;;;42.22;5.68;;;;;;;7.04;65.47;101168.25;6279855;22;20027;-68
2024/01/25 03:15:52;;;;;;;34.90;5.65;;;;;;;7.00;65.78;101173.84;6277265;22;20023;-68
2024/01/25 03:18:18;;;;;;;35.58;5.22;;;;;;;6.98;65.63;101196.47;6278840;22;20430;-68
2024/01/25 03:20:45;;;;;;;39.65;4.90;;;;;;;6.92;65.98;101192.38;6277759;22;20019;-68
2024/01/25 03:23:12;;;;;;;38.05;5.55;;;;;;;6.91;65.75;101190.66;6280001;22;20050;-68
2024/01/25 03:25:38;;;;;;;33.88;6.13;;;;;;;6.97;65.61;101194.75;6282905;22;20081;-69
2024/01/25 03:28:06;;;;;;;35.95;5.40;;;;;;;7.02;65.29;101218.75;6283721;22;20074;-68
2024/01/25 03:30:33;;;;;;;33.80;5.68;;;;;;;6.99;65.20;101212.56;6280495;22;20020;-70
2024/01/25 03:32:59;;;;;;;38.15;5.38;;;;;;;6.99;65.28;101207.16;6283038;22;20069;-68
2024/01/25 03:35:27;;;;;;;49.40;5.68;;;;;;;6.95;65.26;101211.03;6281550;22;20023;-68
2024/01/25 03:37:54;;;;;;;43.65;6.53;;;;;;;6.93;64.87;101217.50;6280129;22;20031;-68
2024/01/25 03:40:20;;;;;;;38.38;5.72;;;;;;;6.97;65.17;101216.31;6282354;22;20024;-68
2024/01/25 03:42:47;;;;;;;37.40;4.88;;;;;;;6.93;65.05;101212.97;6282042;22;20050;-68
2024/01/25 03:45:33;;;;;;;43.13;5.90;;;;;;;6.94;65.12;101209.31;6260581;22;20030;-68
2024/01/25 03:48:00;;;;;;;43.97;5.28;;;;;;;6.94;65.48;101206.63;6282410;22;20028;-68
2024/01/25 03:50:27;;;;;;;36.15;5.28;;;;;;;6.94;64.92;101201.22;6281334;22;20031;-69
2024/01/25 03:52:54;;;;;;;36.78;5.32;;;;;;;6.89;65.35;101206.03;6282340;22;20032;-68
2024/01/25 03:55:21;;;;;;;40.42;5.85;;;;;;;6.92;65.06;101213.94;6283473;22;20357;-68
2024/01/25 03:57:47;;;;;;;32.67;5.65;;;;;;;6.91;65.39;101200.53;6282768;22;20031;-67
2024/01/25 04:00:14;;;;;;;38.03;5.93;;;;;;;6.92;65.22;101203.16;6281716;22;20080;-67
2024/01/25 04:02:42;;;;;;;48.53;7.82;;;;;;;6.87;65.39;101190.94;6253818;22;20462;-67
2024/01/25 04:05:08;;;;;;;32.78;5.30;;;;;;;6.83;65.46;101187.59;6281362;22;20085;-68
2024/01/25 04:07:35;;;;;;;31.95;5.68;;;;;;;6.91;65.33;101187.94;6281838;22;20020;-69
2024/01/25 04:10:05;;;;;;;32.83;5.25;;;;;;;6.87;65.28;101193.63;6282291;22;20024;-68
2024/01/25 04:12:33;;;;;;;34.17;4.88;;;;;;;6.84;65.37;101201.94;6283587;22;20046;-67
2024/01/25 04:14:59;;;;;;;42.85;6.07;;;;;;;6.82;65.15;101207.41;6283063;22;20052;-68
2024/01/25 04:17:26;;;;;;;32.08;6.13;;;;;;;6.82;65.43;101207.41;6283205;22;20407;-68
2024/01/25 04:19:53;;;;;;;30.80;5.13;;;;;;;6.84;65.59;101202.78;6282246;22;21781;-69
2024/01/25 04:22:19;;;;;;;42.17;5.75;;;;;;;6.82;66.24;101218.22;6284003;22;20058;-68
2024/01/25 04:24:48;;;;;;;28.50;5.60;;;;;;;6.84;65.44;101227.06;6285598;22;20027;-68
2024/01/25 04:27:16;;;;;;;42.13;6.18;;;;;;;6.86;65.70;101229.66;6286362;22;20034;-68
2024/01/25 04:29:43;;;;;;;36.42;5.97;;;;;;;6.81;65.57;101240.72;6284735;22;20024;-68
2024/01/25 04:32:10;;;;;;;41.00;5.70;;;;;;;6.77;66.01;101233.81;6258140;22;20350;-69
2024/01/25 04:34:36;;;;;;;36.83;6.43;;;;;;;6.81;65.62;101248.81;6284551;22;20024;-68
2024/01/25 04:37:03;;;;;;;26.98;4.97;;;;;;;6.83;65.67;101252.28;6283832;22;20058;-68
2024/01/25 04:39:30;;;;;;;41.88;6.05;;;;;;;6.80;65.84;101251.59;6285631;22;20011;-68
2024/01/25 04:41:57;;;;;;;38.65;5.88;;;;;;;6.85;65.51;101226.09;6284177;22;20028;-68
2024/01/25 04:44:23;;;;;;;34.00;6.03;;;;;;;6.73;66.11;101272.72;6258313;22;20450;-69
2024/01/25 04:46:52;;;;;;;26.65;5.40;;;;;;;6.74;66.24;101262.81;6284851;22;20024;-69
2024/01/25 04:49:18;;;;;;;40.35;5.72;;;;;;;6.79;65.80;101242.66;6284761;22;20047;-68
2024/01/25 04:51:46;;;;;;;40.30;6.18;;;;;;;6.79;65.82;101244.47;6258431;22;20023;-68
2024/01/25 04:54:15;;;;;;;35.38;5.72;;;;;;;6.75;66.47;101268.09;6285347;22;20028;-68
2024/01/25 04:56:42;;;;;;;38.58;6.00;;;;;;;6.72;66.38;101266.47;6285186;22;20054;-68
2024/01/25 04:59:09;;;;;;;34.35;5.57;;;;;;;6.76;66.12;101253.63;6285910;22;20034;-68
2024/01/25 05:01:35;;;;;;;38.28;5.75;;;;;;;6.75;66.53;101262.69;6285844;22;20077;-68
2024/01/25 05:04:03;;;;;;;36.47;5.55;;;;;;;6.78;66.61;101270.59;6288651;22;20024;-68
2024/01/25 05:06:30;;;;;;;42.72;5.90;;;;;;;6.78;66.64;101275.09;6287112;22;20103;-68
2024/01/25 05:08:57;;;;;;;36.72;5.50;;;;;;;6.78;66.40;101278.66;6285070;22;20023;-68
2024/01/25 05:11:24;;;;;;;39.35;5.93;;;;;;;6.77;66.80;101279.63;6285090;22;20098;-68
2024/01/25 05:13:50;;;;;;;38.22;5.55;;;;;;;6.79;66.69;101293.88;6285637;22;20080;-68
2024/01/25 05:16:17;;;;;;;42.10;6.15;;;;;;;6.77;66.48;101295.81;6285985;22;20046;-68
2024/01/25 05:18:44;;;;;;;40.63;6.00;;;;;;;6.78;66.06;101280.50;6286404;22;20023;-68
2024/01/25 05:21:11;;;;;;;34.55;5.32;;;;;;;6.73;66.40;101296.97;6286586;22;20030;-67
2024/01/25 05:23:38;;;;;;;26.88;4.95;;;;;;;6.68;66.48;101272.13;6286276;22;20380;-68
2024/01/25 05:26:06;;;;;;;35.67;6.28;;;;;;;6.66;66.33;101299.19;6285190;22;20046;-68
2024/01/25 05:28:32;;;;;;;25.67;4.35;;;;;;;6.65;66.32;101291.19;6286597;22;20024;-68
2024/01/25 05:30:59;;;;;;;33.78;5.03;;;;;;;6.63;66.36;101320.06;6287547;22;20023;-68
2024/01/25 05:33:29;;;;;;;32.78;5.80;;;;;;;6.65;65.79;101337.03;6287540;22;20071;-68
2024/01/25 05:35:56;;;;;;;34.88;5.43;;;;;;;6.72;65.71;101324.88;6284441;22;20082;-67
2024/01/25 05:38:23;;;;;;;37.70;5.80;;;;;;;6.75;65.99;101327.41;6286352;22;20920;-68
2024/01/25 05:40:50;;;;;;;28.80;6.05;;;;;;;6.76;66.73;101336.34;6285661;22;20024;-69
2024/01/25 05:43:16;;;;;;;34.05;5.65;;;;;;;6.73;66.21;101342.81;6285108;22;20019;-68
2024/01/25 05:45:44;;;;;;;37.17;5.22;;;;;;;6.74;66.56;101354.47;6286080;22;20050;-67
2024/01/25 05:48:10;;;;;;;37.92;6.22;;;;;;;6.73;67.00;101367.06;6286114;22;20038;-67
2024/01/25 05:50:37;;;;;;;35.58;5.75;;;;;;;6.72;67.24;101360.81;6286944;22;20030;-68
2024/01/25 05:53:03;;;;;;;41.03;6.25;;;;;;;6.67;67.55;101365.63;6283751;22;20027;-69
2024/01/25 05:55:30;;;;;;;44.30;5.72;;;;;;;6.70;67.00;101360.03;6285923;22;20023;-67
2024/01/25 05:57:57;;;;;;;28.98;5.13;;;;;;;6.65;66.95;101355.91;6284431;22;20049;-67
2024/01/25 06:00:24;;;;;;;42.85;5.82;;;;;;;6.68;66.43;101369.19;6258571;22;20028;-67
2024/01/25 06:02:50;;;;;;;43.70;5.47;;;;;;;6.68;66.62;101374.56;6286120;22;20020;-69
2024/01/25 06:05:18;;;;;;;35.40;5.53;;;;;;;6.69;66.68;101373.59;6285710;22;20031;-67
2024/01/25 06:07:46;;;;;;;43.28;6.05;;;;;;;6.71;66.72;101371.69;6258585;22;20019;-67
2024/01/25 06:10:13;;;;;;;33.08;4.75;;;;;;;6.66;66.92;101361.19;6284124;22;20572;-69
2024/01/25 06:12:39;;;;;;;32.97;5.10;;;;;;;6.66;66.34;101371.09;6284682;22;20081;-67
2024/01/25 06:15:07;;;;;;;42.22;4.93;;;;;;;6.65;66.62;101364.00;6284779;22;20020;-67
2024/01/25 06:17:36;;;;;;;52.40;6.95;;;;;;;6.64;66.92;101371.22;6284141;22;20073;-68
2024/01/25 06:20:04;;;;;;;26.00;4.90;;;;;;;6.65;67.22;101382.84;6257834;22;20030;-71
2024/01/25 06:22:31;;;;;;;39.72;5.88;;;;;;;6.71;66.84;101385.16;6284823;22;20079;-67
2024/01/25 06:24:58;;;;;;;42.42;6.53;;;;;;;6.61;66.73;101397.47;6283057;22;20027;-67
2024/01/25 06:27:25;;;;;;;38.72;4.97;;;;;;;6.68;66.24;101410.47;6282788;22;20047;-68
2024/01/25 06:29:51;;;;;;;34.70;5.03;;;;;;;6.65;66.13;101401.72;6282450;22;20015;-69
2024/01/25 06:32:18;;;;;;;38.05;5.45;;;;;;;6.66;66.46;101400.75;6283160;22;20031;-67
2024/01/25 06:34:53;;;;;;;44.03;6.05;;;;;;;6.61;66.65;101409.13;6282807;22;20036;-68
2024/01/25 06:37:20;;;;;;;34.55;5.35;;;;;;;6.62;66.61;101410.84;6282994;22;20050;-69
2024/01/25 06:39:47;;;;;;;38.60;4.68;;;;;;;6.63;66.28;101409.00;6283168;22;20026;-68
2024/01/25 06:42:14;;;;;;;41.63;5.70;;;;;;;6.58;66.58;101419.22;6282727;22;20059;-68
2024/01/25 06:44:40;;;;;;;36.08;5.78;;;;;;;6.61;66.67;101419.03;6282869;22;20319;-68
2024/01/25 06:47:07;;;;;;;39.38;5.07;;;;;;;6.58;66.77;101409.31;6282192;22;20024;-68
2024/01/25 06:49:34;;;;;;;34.53;5.78;;;;;;;6.66;66.26;101416.94;6281424;22;20498;-70
2024/01/25 06:52:00;;;;;;;28.20;5.05;;;;;;;6.70;66.13;101426.56;6282070;22;20434;-68
2024/01/25 06:54:27;;;;;;;22.17;3.78;;;;;;;6.65;65.77;101424.16;6256547;22;20019;-68
2024/01/25 06:56:56;;;;;;;31.92;4.85;;;;;;;6.63;65.89;101425.19;6283192;22;20027;-69
2024/01/25 06:59:23;;;;;;;35.22;5.13;;;;;;;6.68;65.66;101434.75;6283148;22;20028;-68
2024/01/25 07:01:50;;;;;;;35.72;5.28;;;;;;;6.69;65.61;101443.69;6284218;22;20039;-68
2024/01/25 07:04:18;;;;;;;31.67;4.47;;;;;;;6.67;65.71;101441.09;6284595;22;20082;-68
2024/01/25 07:06:45;;;;;;;34.15;4.57;;;;;;;6.70;65.80;101453.53;6285277;22;20364;-68
2024/01/25 07:09:12;;;;;;;29.08;4.75;;;;;;;6.66;66.12;101460.94;6284062;22;20058;-68
2024/01/25 07:11:39;;;;;;;27.00;4.22;;;;;;;6.68;66.16;101460.84;6284761;22;20390;-68
2024/01/25 07:14:06;;;;;;;32.53;4.45;;;;;;;6.75;66.21;101459.50;6284702;22;20028;-67
2024/01/25 07:16:33;;;;;;;35.30;4.95;;;;;;;6.75;66.21;101455.94;6286007;22;20035;-67
2024/01/25 07:19:00;;;;;;;43.33;6.15;;;;;;;6.75;66.34;101473.00;6285659;22;20078;-68
2024/01/25 07:21:27;;;;;;;34.35;5.90;;;;;;;6.75;66.59;101467.59;6285724;22;20024;-68
2024/01/25 07:23:53;;;;;;;32.22;4.28;;;;;;;6.74;66.43;101478.47;6285896;22;20036;-68
2024/01/25 07:26:20;;;;;;;28.30;4.32;;;;;;;6.72;66.33;101490.22;6286046;22;20050;-68
2024/01/25 07:28:47;;;;;;;40.72;6.25;;;;;;;6.70;67.18;101491.25;6284807;22;20510;-68
2024/01/25 07:31:13;;;;;;;39.88;5.10;;;;;;;6.73;66.82;101504.59;6284301;22;20078;-68
2024/01/25 07:33:40;;;;;;;37.85;4.90;;;;;;;6.78;66.92;101501.59;6285525;22;20015;-68
2024/01/25 07:36:07;;;;;;;33.85;5.18;;;;;;;6.74;67.32;101500.91;6285400;22;20023;-67
2024/01/25 07:38:34;;;;;;;36.05;6.13;;;;;;;6.79;66.66;101501.50;6284562;22;20057;-70
2024/01/25 07:41:00;;;;;;;34.53;5.18;;;;;;;6.77;66.88;101506.13;6285771;22;20062;-68
2024/01/25 07:43:27;;;;;;;37.65;6.10;;;;;;;6.82;66.72;101512.13;6258242;22;20020;-68
2024/01/25 07:45:53;;;;;;;31.15;5.28;;;;;;;6.79;67.03;101519.50;6285242;22;20081;-68
2024/01/25 07:48:20;;;;;;;25.90;5.30;;;;;;;6.81;66.94;101517.56;6284574;22;20029;-68
2024/01/25 07:50:47;;;;;;;40.88;6.25;;;;;;;6.81;67.04;101521.13;6284213;22;20047;-69
2024/01/25 07:53:16;;;;;;;43.33;5.90;;;;;;;6.82;67.20;101527.44;6284569;22;20042;-69
2024/01/25 07:55:42;;;;;;;33.05;5.47;;;;;;;6.70;67.36;101527.19;6283707;22;20023;-69
2024/01/25 07:58:09;;;;;;;44.08;5.63;;;;;;;6.81;67.12;101525.66;6284670;22;20426;-69
2024/01/25 08:00:36;;;;;;;33.55;5.50;;;;;;;6.78;66.94;101536.66;6287812;22;20408;-69
2024/01/25 08:03:03;;;;;;;30.15;4.05;;;;;;;6.77;66.86;101533.09;6287186;22;20050;-69
2024/01/25 08:05:30;;;;;;;35.95;5.70;;;;;;;6.86;66.97;101543.31;6287599;22;20019;-69
2024/01/25 08:08:10;;;;;;;31.25;4.95;;;;;;;6.86;66.31;101543.31;6276632;22;20047;-69
2024/01/25 08:10:37;;;;;;;32.00;4.97;;;;;;;6.90;66.40;101557.47;6286008;22;20023;-68
2024/01/25 08:13:03;;;;;;;33.70;4.10;;;;;;;6.87;65.71;101560.38;6287052;22;20024;-70
2024/01/25 08:15:33;;;;;;;38.40;4.75;;;;;;;6.87;65.55;101566.63;6285913;22;20024;-68
2024/01/25 08:18:01;;;;;;;36.60;5.35;;;;;;;6.84;65.72;101571.34;6284481;22;20044;-68
2024/01/25 08:20:28;;;;;;;36.70;6.35;;;;;;;6.89;65.60;101559.31;6286386;22;20022;-68
2024/01/25 08:22:55;;;;;;;31.27;4.72;;;;;;;6.89;65.62;101569.22;6287573;22;20035;-68
2024/01/25 08:25:22;;;;;;;39.53;5.88;;;;;;;6.93;65.33;101590.56;6282222;22;20028;-68
2024/01/25 08:27:49;;;;;;;39.00;4.18;;;;;;;6.85;65.55;101578.47;6281458;22;20020;-68
2024/01/25 08:30:16;;;;;;;34.10;4.47;;;;;;;6.85;64.75;101565.84;6277319;22;20446;-68
2024/01/25 08:32:42;;;;;;;28.60;4.18;;;;;;;6.90;64.94;101581.75;6276604;22;20522;-68
2024/01/25 08:35:10;;;;;;;30.75;4.40;;;;;;;6.93;64.77;101585.16;6276198;22;20020;-69
2024/01/25 08:37:37;;;;;;;34.08;5.15;;;;;;;6.91;64.76;101583.50;6276487;22;20020;-68
2024/01/25 08:40:06;;;;;;;24.15;4.97;;;;;;;6.93;64.54;101598.66;6277011;22;20031;-68
2024/01/25 08:42:33;;;;;;;30.27;4.00;;;;;;;6.88;64.26;101595.34;6278041;22;20089;-67
2024/01/25 08:45:00;;;;;;;25.88;4.80;;;;;;;6.90;64.63;101609.59;6277071;22;20038;-67
2024/01/25 08:47:27;;;;;;;31.48;4.93;;;;;;;6.94;64.59;101615.69;6277306;22;20019;-68
2024/01/25 08:49:54;;;;;;;27.35;4.57;;;;;;;7.03;64.55;101611.59;6277107;22;20028;-67
2024/01/25 08:52:21;;;;;;;34.20;4.60;;;;;;;7.05;64.31;101625.84;6276358;22;20030;-67
2024/01/25 08:54:48;;;;;;;29.90;4.50;;;;;;;7.07;64.42;101611.28;6276492;22;20023;-67
2024/01/25 08:57:15;;;;;;;30.73;5.03;;;;;;;7.06;64.48;101614.97;6276736;22;20074;-67
2024/01/25 08:59:43;;;;;;;24.92;4.82;;;;;;;7.14;64.07;101617.22;6277495;22;20019;-67
2024/01/25 09:02:10;;;;;;;37.55;5.28;;;;;;;7.16;64.06;101608.06;6276092;22;20034;-68
2024/01/25 09:04:37;;;;;;;35.20;5.30;;;;;;;7.08;64.19;101617.56;6277062;22;20035;-69
2024/01/25 09:07:03;;;;;;;26.10;4.43;;;;;;;7.04;64.13;101619.59;6278154;22;20035;-69
2024/01/25 09:09:30;;;;;;;25.38;5.13;;;;;;;7.02;64.65;101626.03;6277451;22;20366;-68
2024/01/25 09:11:57;;;;;;;25.73;4.55;;;;;;;7.05;64.25;101640.19;6277486;22;20081;-68
2024/01/25 09:14:24;;;;;;;26.48;4.20;;;;;;;7.07;64.20;101653.59;6276981;22;20024;-68
2024/01/25 09:16:50;;;;;;;29.83;5.05;;;;;;;7.08;63.90;101644.53;6277109;22;20510;-69
2024/01/25 09:19:17;;;;;;;33.78;4.47;;;;;;;6.98;64.03;101650.47;6277248;22;20054;-68
2024/01/25 09:21:44;;;;;;;37.10;5.07;;;;;;;7.08;64.33;101660.72;6276609;22;20023;-68
2024/01/25 09:24:11;;;;;;;37.15;5.70;;;;;;;7.14;64.62;101666.63;6249593;22;20039;-68
2024/01/25 09:26:37;;;;;;;32.13;5.05;;;;;;;7.19;64.19;101658.25;6277413;22;20020;-69
2024/01/25 09:29:04;;;;;;;28.92;4.85;;;;;;;7.09;64.39;101667.84;6276478;22;20035;-71
2024/01/25 09:31:31;;;;;;;30.90;4.82;;;;;;;7.15;64.33;101667.50;6277326;22;20327;-68
2024/01/25 09:33:58;;;;;;;25.45;4.63;;;;;;;7.16;64.09;101659.31;6257623;22;20028;-68
2024/01/25 09:36:25;;;;;;;31.50;4.80;;;;;;;7.24;64.00;101669.66;6256548;22;20024;-68
2024/01/25 09:38:53;;;;;;;31.83;4.75;;;;;;;7.24;64.04;101675.06;6277347;22;20450;-68
2024/01/25 09:41:20;;;;;;;29.35;4.60;;;;;;;7.25;63.98;101656.06;6276899;22;20095;-68
2024/01/25 09:43:46;;;;;;;30.92;4.55;;;;;;;7.26;63.93;101674.00;6261394;22;20027;-68
2024/01/25 09:46:15;;;;;;;27.98;4.78;;;;;;;7.15;63.89;101681.88;6266952;22;20024;-68
2024/01/25 09:48:45;;;;;;;30.10;4.95;;;;;;;7.10;63.87;101678.59;6249887;22;20016;-68
2024/01/25 09:51:13;;;;;;;35.63;5.33;;;;;;;7.16;64.12;101701.63;6276865;22;20026;-68
2024/01/25 09:53:41;;;;;;;42.10;8.00;;;;;;;7.16;64.12;101696.22;6275807;22;20020;-69
2024/01/25 09:56:12;;;;;;;34.35;5.72;;;;;;;7.20;64.29;101703.19;6276499;22;20016;-67
2024/01/25 09:58:42;;;;;;;35.22;5.15;;;;;;;7.12;64.40;101698.25;6276268;22;20079;-67
2024/01/25 10:01:12;;;;;;;27.63;4.50;;;;;;;7.14;64.57;101703.53;6276536;22;20054;-67
2024/01/25 10:03:46;;;;;;;;;;;;;;;7.09;64.48;101705.63;6276830;22;20019;-67
2024/01/25 10:06:15;;;;;;;29.63;4.22;;;;;;;7.09;64.59;101702.94;6276459;22;19915;-68
2024/01/25 10:08:45;;;;;;;28.55;5.55;;;;;;;7.13;64.76;101701.81;6276584;22;20054;-68
2024/01/25 10:11:11;;;;;;;32.15;5.07;;;;;;;7.15;64.62;101705.28;6276208;22;20477;-68
2024/01/25 10:13:42;;;;;;;35.83;4.65;;;;;;;7.26;64.40;101697.41;6276257;22;20028;-68
2024/01/25 10:16:14;;;;;;;29.23;4.00;;;;;;;7.34;64.03;101703.25;6276894;22;20024;-67
2024/01/25 10:18:42;;;;;;;29.85;5.03;;;;;;;7.33;63.81;101693.41;6275949;22;20758;-68
2024/01/25 10:21:14;;;;;;;34.45;5.32;;;;;;;7.31;64.08;101711.53;6276645;22;20078;-67
2024/01/25 10:23:43;;;;;;;;;;;;;;;7.33;63.97;101714.13;6276345;22;20026;-67
2024/01/25 10:26:10;;;;;;;41.63;4.65;;;;;;;7.45;64.16;101722.41;6275637;22;19915;-68
2024/01/25 10:28:37;;;;;;;26.90;4.68;;;;;;;7.42;63.47;101722.59;6276337;22;20050;-68
2024/01/25 10:31:06;;;;;;;37.35;5.10;;;;;;;7.51;63.77;101715.78;6276479;22;20015;-68
2024/01/25 10:33:33;;;;;;;32.53;5.30;;;;;;;7.47;63.77;101723.19;6276717;22;20024;-68
2024/01/25 10:36:02;;;;;;;32.40;5.05;;;;;;;7.54;64.17;101715.59;6263779;22;20019;-68
2024/01/25 10:38:35;;;;;;;29.02;4.57;;;;;;;7.60;63.10;101703.56;6276172;22;20019;-68
2024/01/25 10:41:05;;;;;;;31.45;4.90;;;;;;;7.53;63.08;101720.13;6275831;22;20027;-69
2024/01/25 10:43:32;;;;;;;31.38;4.32;;;;;;;7.56;63.01;101728.06;6275025;22;20438;-68
2024/01/25 10:46:00;;;;;;;33.58;4.75;;;;;;;7.64;63.25;101729.41;6275883;22;20020;-68
2024/01/25 10:48:30;;;;;;;26.75;5.13;;;;;;;7.69;62.99;101727.31;6275897;22;20026;-68
2024/01/25 10:51:02;;;;;;;40.63;5.10;;;;;;;7.70;62.77;101738.00;6274914;22;20043;-68
2024/01/25 10:53:32;;;;;;;29.67;4.75;;;;;;;7.66;62.86;101739.19;6275670;22;20020;-69
2024/01/25 10:56:01;;;;;;;36.45;5.40;;;;;;;7.66;63.03;101749.09;6273702;22;20105;-68
2024/01/25 10:58:33;;;;;;;26.02;3.53;;;;;;;7.64;62.78;101751.00;6275636;22;20024;-68
2024/01/25 11:01:10;;;;;;;31.33;4.95;;;;;;;7.70;62.67;101737.16;6275617;22;20023;-68
2024/01/25 11:03:41;;;;;;;37.15;5.50;;;;;;;7.71;62.49;101741.59;6249745;22;20090;-68
2024/01/25 11:06:10;;;;;;;28.70;4.43;;;;;;;7.71;62.07;101746.97;6276040;22;20023;-69
2024/01/25 11:08:38;;;;;;;28.30;4.22;;;;;;;7.70;62.15;101739.84;6248791;22;20051;-68
2024/01/25 11:11:09;;;;;;;24.83;4.20;;;;;;;7.79;62.22;101742.00;6274999;22;20023;-69
2024/01/25 11:13:39;;;;;;;35.13;4.45;;;;;;;7.92;61.71;101740.28;6275674;22;20027;-69
2024/01/25 11:16:29;;;;;;;30.73;4.72;;;;;;;7.91;61.40;101737.69;6275784;22;20094;-68
2024/01/25 11:19:06;;;;;;;29.30;4.75;;;;;;;7.95;61.44;101742.81;6275335;22;20022;-68
2024/01/25 11:21:41;;;;;;;34.22;4.93;;;;;;;7.99;61.44;101729.97;6275183;22;20027;-70
2024/01/25 11:24:22;;;;;;;32.40;5.43;;;;;;;8.01;61.89;101745.13;6274989;22;20095;-68
2024/01/25 11:26:49;;;;;;;35.35;5.47;;;;;;;8.05;61.15;101746.69;6275971;22;20015;-67
2024/01/25 11:29:18;;;;;;;35.95;5.57;;;;;;;7.97;60.70;101738.19;6275616;22;20027;-68
2024/01/25 11:31:46;;;;;;;35.08;6.07;;;;;;;8.03;60.55;101737.81;6248640;22;20020;-68